ホニアラ の空港の天気 - METARとTAF

ホニアラ国際空港 ( AGGH / HIR ) - ソロモン諸島 ガダルカナル島ホニアラ
飛行場実況気象(Metar)
観測時間07/23 05:00 SBT (07/22 18:00 UTC)
風向・風速南南西 1m/s
視程10km以上
天気現象煙霧
少しの雲 雲底高度 430m
全天の8割程度の雲 雲底高度 9140m
気温23℃
湿度100%
気圧1009hPa
METARAGGH 221800Z 20002KT 9999 HZ FEW014 BKN300 23/23 Q1009
過去の天気等 Google飛行場航空写真 Wunderground天気予報

過去48時間のMETAR

飛行場予報(TAF)
発表時間: 7/23 03:50 SBT (7/22 16:50 UTC)
予報対象時間: 23日5時 SBT ~ 24日5時 SBT
風向・風速不定 2m/s
視程10km以上
天気現象弱いしゅう霧雨
少しの雲 雲底高度 490m
全天の8割程度の雲 雲底高度 3050m
22日10時 SBT から
風向・風速東南東 5m/s
視程10km以上
天気現象弱いしゅう霧雨
少しの雲 雲底高度 580m
全天の4割程度の雲 雲底高度 880m
TAF AGGH 221650Z 2218/2318 VRB03KT 9999 -SHDZ FEW016 BKN100
FM212300 11010KT 9999 -SHDZ FEW019 SCT029
PROB40 INTER 2218/2304 3000 SHDZ SCT016 BKN027 T 22 25 27 30 Q 1009 1011 1011 1009